Time;durP1;ratioP1;P1;durP2;ratioP2;P2;SDS_P1;SDS_P2;PMS_P1;PMS_P2;Temp;Humidity;BMP_temperature;BMP_pressure;BME280_temperature;BME280_humidity;BME280_pressure;Samples;Min_cycle;Max_cycle;Signal;HPM_P1;HPM_P2
2023/02/10 00:01:17;;;;;;;1.07;0.50;;;;;;;;;;6261374;28;20625;-77
2023/02/10 00:04:22;;;;;;;0.40;0.40;;;;;;;;;;6260801;28;20288;-77
2023/02/10 00:07:29;;;;;;;0.60;0.60;;;;;;;;;;6263201;28;20303;-77
2023/02/10 00:10:34;;;;;;;0.60;0.60;;;;;;;;;;6262174;28;20296;-77
2023/02/10 00:13:40;;;;;;;0.50;0.50;;;;;;;;;;6261766;28;20300;-78
2023/02/10 00:16:51;;;;;;;0.93;0.50;;;;;;;;;;6261579;28;20294;-78
2023/02/10 00:19:56;;;;;;;3.20;0.70;;;;;;;;;;6261822;28;20301;-78
2023/02/10 00:23:02;;;;;;;0.50;0.50;;;;;;;;;;6262157;28;20299;-77
2023/02/10 00:26:07;;;;;;;0.50;0.50;;;;;;;;;;6261749;28;20303;-78
2023/02/10 00:29:14;;;;;;;0.57;0.57;;;;;;;;;;6261565;28;20298;-78
2023/02/10 00:32:20;;;;;;;0.93;0.50;;;;;;;;;;6260548;28;20294;-79
2023/02/10 00:35:25;;;;;;;0.60;0.60;;;;;;;;;;6261602;28;20296;-78
2023/02/10 00:38:33;;;;;;;0.60;0.60;;;;;;;;;;6260600;28;20336;-78
2023/02/10 00:41:38;;;;;;;0.47;0.47;;;;;;;;;;6259947;28;20299;-78
2023/02/10 00:44:43;;;;;;;0.60;0.60;;;;;;;;;;6259715;28;20317;-78
2023/02/10 00:47:50;;;;;;;0.60;0.60;;;;;;;;;;6261686;28;20311;-78
2023/02/10 00:50:55;;;;;;;1.13;0.60;;;;;;;;;;6259114;28;20302;-77
2023/02/10 00:54:01;;;;;;;0.50;0.50;;;;;;;;;;6260970;28;20307;-78
2023/02/10 00:57:06;;;;;;;1.40;0.60;;;;;;;;;;6261575;28;20343;-78
2023/02/10 01:00:15;;;;;;;0.50;0.50;;;;;;;;;;6259776;28;20304;-78
2023/02/10 01:03:23;;;;;;;0.50;0.50;;;;;;;;;;6261399;28;20314;-77
2023/02/10 01:06:28;;;;;;;1.40;0.50;;;;;;;;;;6261006;28;20306;-78
2023/02/10 01:09:36;;;;;;;0.43;0.43;;;;;;;;;;6260904;28;20292;-78
2023/02/10 01:12:41;;;;;;;0.60;0.60;;;;;;;;;;6261306;28;20298;-78
2023/02/10 01:15:47;;;;;;;0.90;0.77;;;;;;;;;;6261476;28;20477;-78
2023/02/10 01:18:54;;;;;;;2.43;0.80;;;;;;;;;;6261386;28;20278;-78
2023/02/10 01:22:00;;;;;;;0.50;0.50;;;;;;;;;;6268974;28;20284;-78
2023/02/10 01:25:05;;;;;;;0.50;0.50;;;;;;;;;;6266148;28;20299;-77
2023/02/10 01:28:13;;;;;;;0.60;0.60;;;;;;;;;;6270462;28;20330;-78
2023/02/10 01:31:20;;;;;;;0.50;0.50;;;;;;;;;;6271574;28;20291;-78
2023/02/10 01:34:27;;;;;;;1.03;0.67;;;;;;;;;;6248003;28;20417;-80
2023/02/10 01:37:32;;;;;;;0.50;0.50;;;;;;;;;;6260883;28;20290;-77
2023/02/10 01:40:38;;;;;;;0.60;0.60;;;;;;;;;;6260112;28;20309;-79
2023/02/10 01:43:58;;;;;;;0.63;0.63;;;;;;;;;;6242757;28;20431;-78
2023/02/10 01:47:03;;;;;;;2.20;0.60;;;;;;;;;;6258918;28;20295;-79
2023/02/10 01:50:12;;;;;;;0.50;0.50;;;;;;;;;;6258886;28;20572;-79
2023/02/10 01:53:18;;;;;;;0.70;0.60;;;;;;;;;;6260321;28;20288;-78
2023/02/10 01:56:23;;;;;;;1.23;0.60;;;;;;;;;;6258368;28;20299;-78
2023/02/10 01:59:31;;;;;;;0.50;0.50;;;;;;;;;;6258609;28;20587;-78
2023/02/10 02:02:36;;;;;;;0.50;0.50;;;;;;;;;;6258061;28;20317;-77
2023/02/10 02:05:44;;;;;;;0.60;0.60;;;;;;;;;;6258459;28;20454;-77
2023/02/10 02:08:50;;;;;;;0.43;0.43;;;;;;;;;;6259667;28;20627;-78
2023/02/10 02:12:01;;;;;;;3.00;0.57;;;;;;;;;;6258722;28;20367;-79
2023/02/10 02:15:11;;;;;;;0.47;0.47;;;;;;;;;;6242023;28;20296;-77
2023/02/10 02:18:22;;;;;;;0.60;0.60;;;;;;;;;;6258791;28;20292;-77
2023/02/10 02:21:52;;;;;;;0.70;0.70;;;;;;;;;;6258101;28;20316;-79
2023/02/10 02:25:18;;;;;;;0.67;0.60;;;;;;;;;;6261405;28;20655;-78
2023/02/10 02:28:28;;;;;;;0.60;0.60;;;;;;;;;;6264688;28;20547;-78
2023/02/10 02:31:47;;;;;;;3.37;0.53;;;;;;;;;;6262905;28;20309;-78
2023/02/10 02:34:55;;;;;;;1.20;0.60;;;;;;;;;;6264540;28;20298;-78
2023/02/10 02:38:01;;;;;;;0.57;0.57;;;;;;;;;;6264866;28;20290;-78
2023/02/10 02:41:06;;;;;;;0.50;0.50;;;;;;;;;;6262961;28;20616;-77
2023/02/10 02:44:13;;;;;;;0.43;0.43;;;;;;;;;;6263538;28;20306;-77
2023/02/10 02:47:35;;;;;;;2.40;0.60;;;;;;;;;;6263310;28;20327;-77
2023/02/10 02:50:44;;;;;;;1.90;0.70;;;;;;;;;;6263828;28;20307;-77
2023/02/10 02:53:57;;;;;;;2.30;0.60;;;;;;;;;;6263833;28;20301;-78
2023/02/10 02:57:10;;;;;;;0.60;0.60;;;;;;;;;;6262983;28;20300;-78
2023/02/10 03:00:18;;;;;;;0.73;0.60;;;;;;;;;;6263802;28;20307;-78
2023/02/10 03:03:27;;;;;;;0.53;0.53;;;;;;;;;;6262059;28;20301;-77
2023/02/10 03:06:33;;;;;;;1.23;0.70;;;;;;;;;;6263289;28;20478;-78
2023/02/10 03:09:38;;;;;;;1.60;0.50;;;;;;;;;;6262096;28;20290;-79
2023/02/10 03:12:43;;;;;;;0.63;0.53;;;;;;;;;;6264085;28;20298;-77
2023/02/10 03:15:48;;;;;;;0.50;0.50;;;;;;;;;;6263354;28;20312;-77
2023/02/10 03:18:55;;;;;;;0.60;0.60;;;;;;;;;;6262380;28;20312;-78
2023/02/10 03:22:01;;;;;;;0.60;0.60;;;;;;;;;;6262850;28;20285;-78
2023/02/10 03:25:06;;;;;;;0.80;0.80;;;;;;;;;;6262879;28;20295;-78
2023/02/10 03:28:12;;;;;;;0.60;0.60;;;;;;;;;;6263194;28;20391;-78
2023/02/10 03:31:18;;;;;;;1.70;0.70;;;;;;;;;;6263227;28;20302;-78
2023/02/10 03:34:25;;;;;;;1.83;0.63;;;;;;;;;;6263057;28;20580;-78
2023/02/10 03:37:30;;;;;;;0.80;0.80;;;;;;;;;;6263452;28;20287;-79
2023/02/10 03:40:35;;;;;;;2.93;0.60;;;;;;;;;;6262680;28;20293;-78
2023/02/10 03:43:41;;;;;;;0.63;0.63;;;;;;;;;;6263312;28;20299;-78
2023/02/10 03:46:46;;;;;;;1.43;0.53;;;;;;;;;;6262131;28;20291;-77
2023/02/10 03:49:53;;;;;;;1.10;0.83;;;;;;;;;;6262769;28;20298;-78
2023/02/10 03:52:58;;;;;;;0.60;0.60;;;;;;;;;;6263358;28;20295;-79
2023/02/10 03:56:04;;;;;;;0.87;0.60;;;;;;;;;;6262871;28;20299;-77
2023/02/10 03:59:11;;;;;;;0.83;0.60;;;;;;;;;;6262124;28;20356;-78
2023/02/10 04:02:16;;;;;;;0.50;0.50;;;;;;;;;;6247658;28;20291;-78
2023/02/10 04:05:23;;;;;;;0.60;0.60;;;;;;;;;;6261934;28;20291;-78
2023/02/10 04:08:31;;;;;;;1.90;0.87;;;;;;;;;;6260419;28;20301;-78
2023/02/10 04:11:36;;;;;;;0.70;0.70;;;;;;;;;;6262583;28;20574;-79
2023/02/10 04:14:41;;;;;;;1.90;0.67;;;;;;;;;;6260717;28;20302;-77
2023/02/10 04:17:49;;;;;;;1.13;0.50;;;;;;;;;;6261249;28;20293;-78
2023/02/10 04:20:55;;;;;;;0.70;0.70;;;;;;;;;;6261871;28;20300;-78
2023/02/10 04:24:00;;;;;;;2.90;0.70;;;;;;;;;;6261278;28;20313;-79
2023/02/10 04:27:05;;;;;;;0.80;0.80;;;;;;;;;;6262326;28;20298;-77
2023/02/10 04:30:13;;;;;;;2.10;0.77;;;;;;;;;;6261766;28;20589;-78
2023/02/10 04:33:18;;;;;;;0.70;0.70;;;;;;;;;;6261440;28;20309;-78
2023/02/10 04:36:27;;;;;;;2.27;0.70;;;;;;;;;;6260520;28;20463;-78
2023/02/10 04:39:34;;;;;;;0.90;0.90;;;;;;;;;;6260620;28;20297;-78
2023/02/10 04:42:39;;;;;;;2.33;0.80;;;;;;;;;;6262132;28;20293;-78
2023/02/10 04:45:44;;;;;;;1.63;0.70;;;;;;;;;;6259969;28;20296;-78
2023/02/10 04:48:50;;;;;;;1.27;0.70;;;;;;;;;;6261575;28;20593;-78
2023/02/10 04:51:57;;;;;;;0.70;0.60;;;;;;;;;;6264964;28;20278;-79
2023/02/10 04:55:02;;;;;;;1.00;0.80;;;;;;;;;;6263597;28;20297;-79
2023/02/10 04:58:08;;;;;;;0.80;0.80;;;;;;;;;;6261118;28;20276;-79
2023/02/10 05:01:13;;;;;;;1.10;0.83;;;;;;;;;;6261505;28;20287;-79
2023/02/10 05:04:19;;;;;;;2.13;0.83;;;;;;;;;;6260676;28;20297;-78
2023/02/10 05:07:26;;;;;;;2.17;0.97;;;;;;;;;;6261343;28;20291;-78
2023/02/10 05:10:31;;;;;;;0.67;0.60;;;;;;;;;;6260853;28;20302;-77
2023/02/10 05:13:37;;;;;;;1.80;0.60;;;;;;;;;;6260672;28;20610;-77
2023/02/10 05:16:42;;;;;;;2.87;0.80;;;;;;;;;;6261258;28;20615;-79
2023/02/10 05:19:47;;;;;;;2.03;0.60;;;;;;;;;;6261141;28;20295;-78
2023/02/10 05:22:53;;;;;;;0.67;0.67;;;;;;;;;;6259475;28;20295;-78
2023/02/10 05:25:58;;;;;;;2.03;0.73;;;;;;;;;;6260331;28;20485;-78
2023/02/10 05:29:04;;;;;;;1.07;0.70;;;;;;;;;;6260414;28;20296;-78
2023/02/10 05:32:10;;;;;;;1.23;0.70;;;;;;;;;;6261183;28;20290;-79
2023/02/10 05:35:18;;;;;;;3.37;0.60;;;;;;;;;;6260154;28;20297;-78
2023/02/10 05:38:26;;;;;;;3.17;0.70;;;;;;;;;;6260103;28;20300;-78
2023/02/10 05:41:31;;;;;;;3.83;0.67;;;;;;;;;;6260603;28;20308;-78
2023/02/10 05:44:39;;;;;;;3.70;0.93;;;;;;;;;;6259941;28;20300;-77
2023/02/10 05:47:44;;;;;;;4.00;0.87;;;;;;;;;;6259177;28;20314;-77
2023/02/10 05:50:51;;;;;;;1.83;0.80;;;;;;;;;;6259782;28;20293;-78
2023/02/10 05:53:59;;;;;;;2.77;0.60;;;;;;;;;;6258433;28;20301;-79
2023/02/10 05:57:04;;;;;;;0.60;0.60;;;;;;;;;;6260470;28;20297;-78
2023/02/10 06:00:14;;;;;;;2.57;0.93;;;;;;;;;;6259497;28;20291;-79
2023/02/10 06:03:25;;;;;;;0.90;0.90;;;;;;;;;;6259652;28;20300;-79
2023/02/10 06:06:30;;;;;;;4.00;0.80;;;;;;;;;;6260766;28;20373;-78
2023/02/10 06:09:37;;;;;;;3.53;0.90;;;;;;;;;;6260333;28;20293;-78
2023/02/10 06:12:44;;;;;;;1.47;0.80;;;;;;;;;;6260504;28;20282;-79
2023/02/10 06:15:50;;;;;;;5.07;1.47;;;;;;;;;;6258268;28;20304;-79
2023/02/10 06:18:55;;;;;;;2.47;0.60;;;;;;;;;;6257505;28;20305;-77
2023/02/10 06:22:00;;;;;;;3.47;0.80;;;;;;;;;;6259842;28;20277;-79
2023/02/10 06:25:08;;;;;;;0.63;0.63;;;;;;;;;;6259243;28;20302;-78
2023/02/10 06:28:14;;;;;;;0.60;0.60;;;;;;;;;;6258775;28;20294;-79
2023/02/10 06:31:19;;;;;;;1.13;0.73;;;;;;;;;;6259970;28;20289;-78
2023/02/10 06:34:26;;;;;;;0.80;0.80;;;;;;;;;;6259100;28;20312;-78
2023/02/10 06:37:32;;;;;;;2.97;0.73;;;;;;;;;;6259342;28;20284;-77
2023/02/10 06:40:40;;;;;;;0.60;0.60;;;;;;;;;;6259099;28;20316;-78
2023/02/10 06:43:44;;;;;;;0.60;0.60;;;;;;;;;;6258807;28;20306;-78
2023/02/10 06:46:50;;;;;;;3.33;0.80;;;;;;;;;;6259246;28;20299;-79
2023/02/10 06:49:55;;;;;;;1.37;0.90;;;;;;;;;;6259065;28;20600;-78
2023/02/10 06:53:01;;;;;;;2.33;0.80;;;;;;;;;;6259300;28;20300;-80
2023/02/10 06:56:09;;;;;;;2.57;0.70;;;;;;;;;;6256713;28;20297;-78
2023/02/10 06:59:14;;;;;;;1.90;0.70;;;;;;;;;;6255687;28;20287;-78
2023/02/10 07:02:20;;;;;;;2.63;0.90;;;;;;;;;;6259164;28;20601;-78
2023/02/10 07:05:26;;;;;;;5.30;1.10;;;;;;;;;;6258814;28;20572;-77
2023/02/10 07:08:31;;;;;;;0.93;0.70;;;;;;;;;;6258145;28;20291;-79
2023/02/10 07:11:37;;;;;;;4.40;1.00;;;;;;;;;;6262919;28;20287;-79
2023/02/10 07:14:43;;;;;;;0.80;0.80;;;;;;;;;;6245355;28;20300;-79
2023/02/10 07:17:50;;;;;;;0.80;0.80;;;;;;;;;;6262491;28;20288;-77
2023/02/10 07:20:55;;;;;;;3.10;0.83;;;;;;;;;;6263232;28;20293;-78
2023/02/10 07:24:01;;;;;;;3.27;0.77;;;;;;;;;;6263078;28;20322;-78
2023/02/10 07:27:07;;;;;;;3.40;0.80;;;;;;;;;;6263698;28;20575;-77
2023/02/10 07:30:13;;;;;;;5.47;1.10;;;;;;;;;;6261974;28;20303;-78
2023/02/10 07:33:19;;;;;;;2.13;0.90;;;;;;;;;;6263375;28;20300;-78
2023/02/10 07:36:24;;;;;;;2.23;0.70;;;;;;;;;;6262144;28;20290;-77
2023/02/10 07:39:30;;;;;;;1.03;0.90;;;;;;;;;;6263688;28;20287;-77
2023/02/10 07:42:36;;;;;;;9.70;1.07;;;;;;;;;;6263466;28;20293;-77
2023/02/10 07:45:54;;;;;;;3.37;1.17;;;;;;;;;;6260573;28;20303;-78
2023/02/10 07:48:59;;;;;;;3.93;0.80;;;;;;;;;;6262524;28;20297;-77
2023/02/10 07:52:05;;;;;;;0.80;0.70;;;;;;;;;;6262833;28;20352;-77
2023/02/10 07:55:10;;;;;;;5.03;1.03;;;;;;;;;;6260872;28;22144;-77
2023/02/10 07:58:18;;;;;;;1.43;0.77;;;;;;;;;;6262335;28;20570;-78
2023/02/10 08:01:24;;;;;;;0.70;0.70;;;;;;;;;;6262903;28;20293;-78
2023/02/10 08:04:31;;;;;;;6.33;0.90;;;;;;;;;;6262112;28;20305;-77
2023/02/10 08:07:37;;;;;;;0.90;0.90;;;;;;;;;;6261182;28;20295;-78
2023/02/10 08:10:43;;;;;;;1.70;0.90;;;;;;;;;;6261718;28;20308;-77
2023/02/10 08:13:50;;;;;;;1.27;1.00;;;;;;;;;;6262457;28;20300;-78
2023/02/10 08:16:58;;;;;;;0.60;0.60;;;;;;;;;;6261988;28;20304;-79
2023/02/10 08:20:05;;;;;;;3.53;0.90;;;;;;;;;;6262544;28;20298;-79
2023/02/10 08:23:15;;;;;;;2.07;0.90;;;;;;;;;;6261903;28;20488;-81
2023/02/10 08:26:23;;;;;;;2.37;1.20;;;;;;;;;;6261178;28;20308;-79
2023/02/10 08:29:29;;;;;;;3.43;1.00;;;;;;;;;;6261699;28;20332;-77
2023/02/10 08:32:35;;;;;;;6.43;0.87;;;;;;;;;;6261739;28;20291;-78
2023/02/10 08:35:40;;;;;;;3.83;1.00;;;;;;;;;;6260292;28;20308;-79
2023/02/10 08:38:46;;;;;;;1.70;0.80;;;;;;;;;;6261624;28;20319;-78
2023/02/10 08:41:50;;;;;;;0.80;0.67;;;;;;;;;;6260650;28;20294;-79
2023/02/10 08:44:57;;;;;;;6.53;1.23;;;;;;;;;;6274424;28;20601;-78
2023/02/10 08:48:04;;;;;;;3.57;0.80;;;;;;;;;;6260509;28;20542;-78
2023/02/10 08:51:14;;;;;;;1.10;0.80;;;;;;;;;;6259378;28;20299;-78
2023/02/10 08:54:19;;;;;;;2.13;0.83;;;;;;;;;;6261066;28;20592;-77
2023/02/10 08:57:25;;;;;;;0.83;0.80;;;;;;;;;;6261208;28;20472;-79
2023/02/10 09:00:31;;;;;;;0.70;0.70;;;;;;;;;;6261330;28;20470;-78
2023/02/10 09:03:36;;;;;;;5.00;0.93;;;;;;;;;;6260837;28;20303;-77
2023/02/10 09:06:43;;;;;;;1.40;1.00;;;;;;;;;;6260211;28;20322;-78
2023/02/10 09:09:48;;;;;;;2.03;0.90;;;;;;;;;;6261121;28;20291;-78
2023/02/10 09:12:53;;;;;;;0.90;0.87;;;;;;;;;;6255703;28;20441;-78
2023/02/10 09:15:59;;;;;;;3.87;0.70;;;;;;;;;;6260855;28;20584;-78
2023/02/10 09:19:07;;;;;;;1.03;1.00;;;;;;;;;;6259010;28;20295;-78
2023/02/10 09:22:13;;;;;;;0.83;0.80;;;;;;;;;;6260700;28;20297;-77
2023/02/10 09:25:18;;;;;;;0.70;0.70;;;;;;;;;;6260332;28;20302;-78
2023/02/10 09:28:24;;;;;;;3.70;1.00;;;;;;;;;;6260129;28;20316;-77
2023/02/10 09:31:30;;;;;;;1.63;0.87;;;;;;;;;;6260959;28;20289;-78
2023/02/10 09:34:35;;;;;;;5.03;0.83;;;;;;;;;;6260300;28;20293;-78
2023/02/10 09:37:43;;;;;;;1.43;1.37;;;;;;;;;;6260748;28;20294;-78
2023/02/10 09:40:53;;;;;;;1.63;0.70;;;;;;;;;;6259007;28;20287;-77
2023/02/10 09:44:10;;;;;;;9.47;1.33;;;;;;;;;;6260007;28;20295;-78
2023/02/10 09:47:36;;;;;;;2.23;1.00;;;;;;;;;;6260816;28;20303;-77
2023/02/10 09:50:52;;;;;;;4.97;1.53;;;;;;;;;;6259964;28;20516;-78
2023/02/10 09:53:57;;;;;;;2.80;1.27;;;;;;;;;;6258921;28;20293;-78
2023/02/10 09:57:03;;;;;;;1.20;1.00;;;;;;;;;;6258994;28;20296;-76
2023/02/10 10:00:19;;;;;;;6.47;1.57;;;;;;;;;;6258194;28;20292;-77
2023/02/10 10:03:30;;;;;;;3.20;0.97;;;;;;;;;;6259806;28;20311;-77
2023/02/10 10:06:37;;;;;;;3.10;0.93;;;;;;;;;;6260425;28;20283;-78
2023/02/10 10:09:46;;;;;;;4.60;1.33;;;;;;;;;;6258939;28;20295;-78
2023/02/10 10:12:52;;;;;;;2.07;1.00;;;;;;;;;;6259692;28;20570;-79
2023/02/10 10:16:14;;;;;;;2.97;1.10;;;;;;;;;;6262776;28;20373;-77
2023/02/10 10:19:29;;;;;;;11.70;1.70;;;;;;;;;;6263667;28;20298;-79
2023/02/10 10:22:46;;;;;;;0.90;0.80;;;;;;;;;;6260422;28;20283;-77
2023/02/10 10:26:13;;;;;;;1.70;1.20;;;;;;;;;;6259505;28;20303;-77
2023/02/10 10:29:32;;;;;;;2.37;0.90;;;;;;;;;;6258417;28;20486;-77
2023/02/10 10:32:42;;;;;;;10.27;1.23;;;;;;;;;;6260423;28;20371;-77
2023/02/10 10:35:49;;;;;;;1.23;1.13;;;;;;;;;;6259432;28;20295;-78
2023/02/10 10:39:01;;;;;;;6.20;1.23;;;;;;;;;;6259338;28;20299;-77
2023/02/10 10:42:14;;;;;;;2.20;1.30;;;;;;;;;;6260325;28;20292;-78
2023/02/10 10:45:21;;;;;;;1.20;1.10;;;;;;;;;;6261645;28;20303;-77
2023/02/10 10:48:28;;;;;;;4.73;1.00;;;;;;;;;;6264547;28;20318;-77
2023/02/10 10:51:35;;;;;;;3.60;1.23;;;;;;;;;;6263880;28;20471;-78
2023/02/10 10:54:40;;;;;;;2.27;1.00;;;;;;;;;;6263411;28;20296;-78
2023/02/10 10:57:45;;;;;;;3.43;1.00;;;;;;;;;;6265110;28;20292;-77
2023/02/10 11:00:53;;;;;;;1.33;0.97;;;;;;;;;;6251912;28;20328;-79
2023/02/10 11:04:05;;;;;;;6.80;1.30;;;;;;;;;;6263504;28;20291;-79
2023/02/10 11:07:18;;;;;;;3.13;0.80;;;;;;;;;;6264128;28;20316;-79
2023/02/10 11:10:26;;;;;;;2.93;1.03;;;;;;;;;;6263799;28;20286;-77
2023/02/10 11:13:33;;;;;;;2.67;1.10;;;;;;;;;;6262212;28;20287;-79
2023/02/10 11:16:42;;;;;;;1.00;1.00;;;;;;;;;;6264197;28;20599;-78
2023/02/10 11:19:55;;;;;;;1.77;0.90;;;;;;;;;;6263508;28;20303;-78
2023/02/10 11:23:04;;;;;;;1.63;1.20;;;;;;;;;;6262121;28;20291;-78
2023/02/10 11:26:19;;;;;;;5.60;1.20;;;;;;;;;;6263068;28;20307;-78
2023/02/10 11:29:25;;;;;;;0.90;0.90;;;;;;;;;;6262826;28;20299;-78
2023/02/10 11:32:32;;;;;;;1.70;0.90;;;;;;;;;;6262129;28;20341;-79
2023/02/10 11:35:37;;;;;;;3.80;1.10;;;;;;;;;;6261713;28;20575;-79
2023/02/10 11:38:43;;;;;;;2.53;1.03;;;;;;;;;;6263208;28;20299;-79
2023/02/10 11:41:49;;;;;;;1.67;1.00;;;;;;;;;;6262812;28;20578;-78
2023/02/10 11:44:57;;;;;;;2.50;1.00;;;;;;;;;;6262702;28;20303;-78
2023/02/10 11:48:03;;;;;;;1.10;1.00;;;;;;;;;;6262290;28;20293;-78
2023/02/10 11:51:18;;;;;;;2.03;0.90;;;;;;;;;;6258564;28;20287;-78
2023/02/10 11:54:25;;;;;;;2.63;0.90;;;;;;;;;;6265173;28;20381;-78
2023/02/10 12:01:09;;;;;;;1.97;1.00;;;;;;;;;;6260007;28;20294;-79
2023/02/10 12:04:38;;;;;;;0.90;0.90;;;;;;;;;;6262259;28;20459;-78
2023/02/10 12:08:06;;;;;;;5.90;1.10;;;;;;;;;;6250179;28;20314;-78
2023/02/10 12:11:18;;;;;;;7.43;1.77;;;;;;;;;;6262029;28;20287;-78
2023/02/10 12:14:35;;;;;;;1.33;1.00;;;;;;;;;;6260738;28;20494;-77
2023/02/10 12:17:48;;;;;;;3.87;1.00;;;;;;;;;;6262708;28;20302;-77
2023/02/10 12:21:04;;;;;;;2.40;0.97;;;;;;;;;;6260778;28;20287;-78
2023/02/10 12:24:29;;;;;;;4.53;1.10;;;;;;;;;;6262062;28;20307;-78
2023/02/10 12:27:50;;;;;;;1.33;0.80;;;;;;;;;;6260354;28;20293;-77
2023/02/10 12:31:01;;;;;;;1.47;0.93;;;;;;;;;;6260946;28;20305;-79
2023/02/10 12:34:41;;;;;;;1.73;0.90;;;;;;;;;;6261751;28;20294;-78
2023/02/10 12:37:53;;;;;;;1.03;1.03;;;;;;;;;;6262474;28;20306;-78
2023/02/10 12:41:07;;;;;;;6.10;1.10;;;;;;;;;;6261616;28;20300;-78
2023/02/10 12:44:23;;;;;;;1.83;1.03;;;;;;;;;;6261800;28;20288;-78
2023/02/10 12:47:38;;;;;;;14.73;1.43;;;;;;;;;;6262371;28;20327;-78
2023/02/10 12:50:57;;;;;;;2.10;1.27;;;;;;;;;;6261304;28;20300;-77
2023/02/10 12:54:05;;;;;;;2.27;1.27;;;;;;;;;;6261501;28;20296;-76
2023/02/10 12:57:13;;;;;;;2.00;1.10;;;;;;;;;;6260320;28;20284;-78
2023/02/10 13:00:24;;;;;;;5.33;1.07;;;;;;;;;;6260785;28;20291;-77
2023/02/10 13:03:34;;;;;;;1.10;1.00;;;;;;;;;;6260800;28;20361;-77
2023/02/10 13:06:43;;;;;;;2.90;0.90;;;;;;;;;;6261723;28;20303;-78
2023/02/10 13:09:52;;;;;;;1.30;1.20;;;;;;;;;;6261078;28;20306;-78
2023/02/10 13:13:05;;;;;;;11.33;1.50;;;;;;;;;;6259568;28;20572;-78
2023/02/10 13:16:17;;;;;;;7.27;1.20;;;;;;;;;;6265377;28;20292;-79
2023/02/10 13:19:30;;;;;;;2.83;1.33;;;;;;;;;;6263864;28;20314;-77
2023/02/10 13:22:44;;;;;;;2.33;1.30;;;;;;;;;;6266070;28;20301;-77
2023/02/10 13:26:03;;;;;;;14.53;1.50;;;;;;;;;;6266201;28;20295;-78
2023/02/10 13:29:15;;;;;;;3.90;1.17;;;;;;;;;;6262187;28;20600;-77
2023/02/10 13:32:36;;;;;;;5.60;1.20;;;;;;;;;;6261205;28;20283;-78
2023/02/10 13:35:42;;;;;;;2.17;1.13;;;;;;;;;;6260820;28;20299;-78
2023/02/10 13:38:48;;;;;;;7.77;1.30;;;;;;;;;;6260281;28;20299;-78
2023/02/10 13:42:08;;;;;;;23.13;2.37;;;;;;;;;;6260519;28;20292;-78
2023/02/10 13:45:18;;;;;;;6.13;1.60;;;;;;;;;;6259998;28;20435;-77
2023/02/10 13:48:29;;;;;;;3.30;1.40;;;;;;;;;;6258920;28;20283;-77
2023/02/10 13:51:38;;;;;;;3.63;1.13;;;;;;;;;;6259698;28;20310;-77
2023/02/10 13:54:55;;;;;;;2.20;1.00;;;;;;;;;;6259803;28;20303;-78
2023/02/10 13:58:28;;;;;;;4.43;1.40;;;;;;;;;;6258892;28;20474;-78
2023/02/10 14:01:36;;;;;;;4.83;1.27;;;;;;;;;;6258843;28;20290;-77
2023/02/10 14:04:46;;;;;;;2.57;1.23;;;;;;;;;;6257720;28;20303;-78
2023/02/10 14:07:52;;;;;;;5.03;1.20;;;;;;;;;;6260502;28;20295;-78
2023/02/10 14:11:02;;;;;;;2.00;1.30;;;;;;;;;;6259336;28;20285;-77
2023/02/10 14:14:20;;;;;;;11.40;1.63;;;;;;;;;;6259448;28;20599;-77
2023/02/10 14:17:29;;;;;;;2.63;1.17;;;;;;;;;;6260051;28;20485;-76
2023/02/10 14:20:38;;;;;;;3.03;1.10;;;;;;;;;;6258523;28;20292;-76
2023/02/10 14:23:50;;;;;;;1.20;1.13;;;;;;;;;;6259025;28;20318;-79
2023/02/10 14:26:58;;;;;;;4.57;1.50;;;;;;;;;;6260036;28;20477;-78
2023/02/10 14:30:14;;;;;;;2.37;0.97;;;;;;;;;;6259336;28;20599;-77
2023/02/10 14:33:21;;;;;;;4.47;1.00;;;;;;;;;;6259445;28;20310;-77
2023/02/10 14:36:29;;;;;;;4.77;1.07;;;;;;;;;;6259597;28;20304;-78
2023/02/10 14:39:34;;;;;;;1.20;1.10;;;;;;;;;;6259349;28;20304;-78
2023/02/10 14:42:43;;;;;;;9.83;1.30;;;;;;;;;;6259191;28;20294;-79
2023/02/10 14:45:49;;;;;;;4.53;1.20;;;;;;;;;;6259350;28;20307;-78
2023/02/10 14:48:59;;;;;;;2.87;1.30;;;;;;;;;;6258066;28;20296;-78
2023/02/10 14:52:05;;;;;;;5.00;1.60;;;;;;;;;;6258973;28;20276;-78
2023/02/10 14:55:25;;;;;;;3.73;1.77;;;;;;;;;;6259325;28;20287;-78
2023/02/10 14:58:31;;;;;;;7.57;1.50;;;;;;;;;;6259252;28;20311;-78
2023/02/10 15:01:37;;;;;;;5.97;1.40;;;;;;;;;;6259710;28;20292;-77
2023/02/10 15:04:44;;;;;;;6.10;1.27;;;;;;;;;;6258458;28;20479;-77
2023/02/10 15:07:53;;;;;;;12.73;1.30;;;;;;;;;;6259583;28;20587;-78
2023/02/10 15:10:59;;;;;;;5.37;1.27;;;;;;;;;;6258760;28;20471;-79
2023/02/10 15:14:04;;;;;;;2.90;1.27;;;;;;;;;;6258700;28;20620;-79
2023/02/10 15:17:17;;;;;;;5.00;1.30;;;;;;;;;;6259120;28;20289;-78
2023/02/10 15:20:25;;;;;;;2.50;1.20;;;;;;;;;;6258539;28;20478;-78
2023/02/10 15:23:35;;;;;;;5.70;1.40;;;;;;;;;;6258713;28;20294;-77
2023/02/10 15:26:41;;;;;;;5.13;1.53;;;;;;;;;;6259198;28;20299;-78
2023/02/10 15:29:46;;;;;;;3.63;1.33;;;;;;;;;;6257208;28;20299;-79
2023/02/10 15:32:53;;;;;;;8.53;1.10;;;;;;;;;;6263545;28;20294;-78
2023/02/10 15:36:18;;;;;;;3.23;1.20;;;;;;;;;;6262165;28;20290;-76
2023/02/10 15:39:26;;;;;;;5.83;1.37;;;;;;;;;;6263618;28;20296;-78
2023/02/10 15:42:32;;;;;;;8.83;1.30;;;;;;;;;;6265855;28;20288;-77
2023/02/10 15:45:39;;;;;;;3.17;1.40;;;;;;;;;;6263277;28;20300;-78
2023/02/10 15:48:44;;;;;;;6.17;1.27;;;;;;;;;;6261269;28;20462;-78
2023/02/10 15:51:51;;;;;;;3.63;1.20;;;;;;;;;;6263147;28;20314;-77
2023/02/10 15:55:01;;;;;;;4.03;1.33;;;;;;;;;;6260648;28;20296;-77
2023/02/10 15:58:07;;;;;;;4.63;1.60;;;;;;;;;;6263410;28;20296;-76
2023/02/10 16:01:12;;;;;;;3.17;1.40;;;;;;;;;;6262841;28;20475;-77
2023/02/10 16:04:17;;;;;;;6.43;1.80;;;;;;;;;;6262704;28;20458;-77
2023/02/10 16:07:26;;;;;;;6.57;1.53;;;;;;;;;;6263324;28;20291;-78
2023/02/10 16:10:33;;;;;;;5.13;1.47;;;;;;;;;;6262643;28;20299;-78
2023/02/10 16:13:38;;;;;;;8.10;2.37;;;;;;;;;;6262237;28;20292;-77
2023/02/10 16:16:46;;;;;;;5.27;1.30;;;;;;;;;;6262998;28;20296;-78
2023/02/10 16:19:51;;;;;;;5.60;1.37;;;;;;;;;;6260467;28;20316;-78
2023/02/10 16:22:57;;;;;;;3.47;1.67;;;;;;;;;;6260751;28;20302;-77
2023/02/10 16:26:04;;;;;;;4.73;1.57;;;;;;;;;;6251319;28;20302;-77
2023/02/10 16:29:11;;;;;;;1.80;1.60;;;;;;;;;;6261703;28;20295;-78
2023/02/10 16:32:17;;;;;;;2.10;1.30;;;;;;;;;;6262008;28;20491;-78
2023/02/10 16:35:23;;;;;;;1.87;1.30;;;;;;;;;;6261581;28;20292;-78
2023/02/10 16:38:32;;;;;;;10.47;2.03;;;;;;;;;;6261857;28;20295;-78
2023/02/10 16:41:39;;;;;;;2.77;1.93;;;;;;;;;;6262058;28;20370;-78
2023/02/10 16:44:44;;;;;;;3.43;1.47;;;;;;;;;;6260871;28;20303;-78
2023/02/10 16:47:52;;;;;;;8.53;1.73;;;;;;;;;;6261952;28;20296;-78
2023/02/10 16:50:58;;;;;;;12.70;2.00;;;;;;;;;;6261098;28;20309;-77
2023/02/10 16:54:08;;;;;;;10.47;1.87;;;;;;;;;;6261079;28;20601;-78
2023/02/10 16:57:15;;;;;;;12.07;1.70;;;;;;;;;;6261596;28;20298;-77
2023/02/10 17:00:21;;;;;;;3.47;1.90;;;;;;;;;;6260819;28;20299;-75
2023/02/10 17:03:26;;;;;;;5.27;1.70;;;;;;;;;;6260684;28;20304;-78
2023/02/10 17:06:31;;;;;;;9.10;1.50;;;;;;;;;;6261312;28;20301;-78
2023/02/10 17:09:38;;;;;;;3.10;1.97;;;;;;;;;;6261287;28;20303;-77
2023/02/10 17:12:44;;;;;;;9.97;1.70;;;;;;;;;;6261217;28;20288;-79
2023/02/10 17:15:50;;;;;;;10.67;2.07;;;;;;;;;;6261040;28;20292;-77
2023/02/10 17:18:56;;;;;;;3.40;1.50;;;;;;;;;;6259275;28;20291;-78
2023/02/10 17:22:02;;;;;;;3.43;1.33;;;;;;;;;;6261037;28;20287;-76
2023/02/10 17:25:07;;;;;;;6.00;1.70;;;;;;;;;;6260397;28;20295;-78
2023/02/10 17:28:16;;;;;;;7.97;1.60;;;;;;;;;;6260374;28;20297;-77
2023/02/10 17:31:22;;;;;;;6.83;1.63;;;;;;;;;;6260952;28;20294;-79
2023/02/10 17:34:32;;;;;;;4.30;1.60;;;;;;;;;;6260430;28;20604;-78
2023/02/10 17:37:38;;;;;;;6.17;1.60;;;;;;;;;;6260570;28;20299;-77
2023/02/10 17:40:44;;;;;;;5.57;1.80;;;;;;;;;;6260023;28;20306;-75
2023/02/10 17:43:51;;;;;;;7.97;1.80;;;;;;;;;;6258966;28;20615;-75
2023/02/10 17:46:56;;;;;;;4.17;1.80;;;;;;;;;;6260208;28;20298;-78
2023/02/10 17:50:02;;;;;;;2.20;2.00;;;;;;;;;;6260241;28;20296;-78
2023/02/10 17:53:07;;;;;;;10.80;2.07;;;;;;;;;;6259906;28;20299;-79
2023/02/10 17:56:14;;;;;;;8.33;2.00;;;;;;;;;;6260426;28;20340;-80
2023/02/10 17:59:24;;;;;;;2.33;2.10;;;;;;;;;;6258902;28;20379;-82
2023/02/10 18:02:30;;;;;;;3.03;1.93;;;;;;;;;;6260191;28;20408;-79
2023/02/10 18:05:35;;;;;;;5.97;2.17;;;;;;;;;;6260153;28;20313;-79
2023/02/10 18:08:42;;;;;;;9.07;2.10;;;;;;;;;;6260064;28;20291;-78
2023/02/10 18:11:50;;;;;;;7.63;2.27;;;;;;;;;;6260710;28;20295;-80
2023/02/10 18:14:56;;;;;;;9.23;2.23;;;;;;;;;;6258482;28;20303;-84
2023/02/10 18:18:02;;;;;;;7.37;2.30;;;;;;;;;;6261246;28;20295;-87
2023/02/10 18:21:13;;;;;;;4.97;1.80;;;;;;;;;;6261170;28;20293;-82
2023/02/10 18:24:18;;;;;;;15.43;2.33;;;;;;;;;;6258277;28;20293;-78
2023/02/10 18:27:24;;;;;;;6.90;3.90;;;;;;;;;;6260106;28;20300;-90
2023/02/10 18:30:31;;;;;;;7.70;2.40;;;;;;;;;;6259935;28;20307;-84
2023/02/10 18:33:37;;;;;;;7.33;2.77;;;;;;;;;;6259674;28;20296;-76
2023/02/10 18:36:45;;;;;;;11.80;2.33;;;;;;;;;;6259809;28;20591;-79
2023/02/10 18:39:55;;;;;;;2.83;1.50;;;;;;;;;;6259163;28;20306;-80
2023/02/10 18:43:01;;;;;;;4.77;1.63;;;;;;;;;;6258481;28;20295;-78
2023/02/10 18:46:10;;;;;;;3.50;2.20;;;;;;;;;;6259251;28;20297;-77
2023/02/10 18:49:25;;;;;;;3.33;1.47;;;;;;;;;;6259431;28;20294;-76
2023/02/10 18:52:39;;;;;;;4.50;1.53;;;;;;;;;;6259411;28;20295;-77